Time;durP1;ratioP1;P1;durP2;ratioP2;P2;SDS_P1;SDS_P2;PMS_P1;PMS_P2;Temp;Humidity;BMP_temperature;BMP_pressure;BME280_temperature;BME280_humidity;BME280_pressure;Samples;Min_cycle;Max_cycle;Signal;HPM_P1;HPM_P2
2023/03/10 00:00:37;;;;;;;16.88;10.25;;;1.00;99.90;;;;;;4958642;28;90334;-31
2023/03/10 00:03:03;;;;;;;17.83;10.20;;;1.00;99.90;;;;;;4958430;28;90057;-33
2023/03/10 00:05:29;;;;;;;19.17;10.50;;;0.90;99.90;;;;;;4958264;28;89660;-28
2023/03/10 00:07:54;;;;;;;16.67;10.95;;;0.90;99.90;;;;;;4958530;28;90175;-29
2023/03/10 00:10:20;;;;;;;17.40;13.60;;;1.00;99.90;;;;;;4958808;28;89834;-32
2023/03/10 00:12:46;;;;;;;20.40;12.20;;;1.00;99.90;;;;;;4958623;28;88063;-30
2023/03/10 00:15:13;;;;;;;15.10;8.73;;;0.90;99.90;;;;;;4958613;28;88206;-31
2023/03/10 00:17:39;;;;;;;17.33;13.02;;;0.90;99.90;;;;;;4959358;28;89762;-29
2023/03/10 00:20:07;;;;;;;17.92;11.52;;;1.00;99.90;;;;;;4957582;28;89558;-30
2023/03/10 00:22:36;;;;;;;18.48;11.95;;;0.90;99.90;;;;;;4958460;28;89169;-31
2023/03/10 00:25:02;;;;;;;13.73;8.77;;;0.90;99.90;;;;;;4957527;28;88295;-29
2023/03/10 00:27:28;;;;;;;19.08;13.85;;;0.90;99.90;;;;;;4959211;28;90403;-32
2023/03/10 00:29:53;;;;;;;15.15;11.45;;;0.90;99.90;;;;;;4959060;28;90606;-30
2023/03/10 00:32:19;;;;;;;12.45;8.60;;;0.90;99.90;;;;;;4961961;28;91241;-30
2023/03/10 00:34:45;;;;;;;16.17;12.55;;;1.00;99.90;;;;;;4962792;28;88027;-28
2023/03/10 00:37:10;;;;;;;17.17;12.27;;;0.90;99.90;;;;;;4961618;28;89497;-30
2023/03/10 00:39:36;;;;;;;17.65;11.50;;;0.90;99.90;;;;;;4961919;28;89441;-31
2023/03/10 00:42:01;;;;;;;17.20;11.82;;;1.00;99.90;;;;;;4943346;28;89995;-28
2023/03/10 00:44:27;;;;;;;16.33;12.93;;;1.00;99.90;;;;;;4962371;28;88162;-29
2023/03/10 00:46:53;;;;;;;15.85;11.40;;;0.90;99.90;;;;;;4961685;28;90151;-30
2023/03/10 00:49:19;;;;;;;17.92;12.93;;;0.90;99.90;;;;;;4961658;28;89536;-32
2023/03/10 00:51:45;;;;;;;16.27;10.48;;;0.90;99.90;;;;;;4961717;28;88957;-30
2023/03/10 00:54:11;;;;;;;17.95;13.35;;;1.00;99.90;;;;;;4960619;28;89774;-29
2023/03/10 00:56:37;;;;;;;19.08;13.35;;;1.00;99.90;;;;;;4943795;28;91748;-32
2023/03/10 00:59:03;;;;;;;22.40;13.82;;;1.00;99.90;;;;;;4961075;28;90153;-32
2023/03/10 01:01:35;;;;;;;17.48;11.38;;;1.00;99.90;;;;;;4961617;28;89247;-29
2023/03/10 01:04:04;;;;;;;18.80;13.43;;;0.90;99.90;;;;;;4960919;28;89278;-31
2023/03/10 01:06:30;;;;;;;19.75;12.00;;;0.90;99.90;;;;;;4961115;28;90093;-28
2023/03/10 01:08:56;;;;;;;14.50;11.70;;;1.00;99.90;;;;;;4961933;28;90525;-32
2023/03/10 01:11:25;;;;;;;17.73;13.80;;;1.00;99.90;;;;;;4960941;28;89411;-30
2023/03/10 01:13:51;;;;;;;19.30;11.20;;;0.90;99.90;;;;;;4961188;28;89854;-31
2023/03/10 01:16:17;;;;;;;18.25;11.95;;;0.90;99.90;;;;;;4960567;28;90437;-31
2023/03/10 01:18:43;;;;;;;17.05;13.52;;;1.00;99.90;;;;;;4960967;28;90143;-29
2023/03/10 01:21:16;;;;;;;12.25;8.88;;;1.00;99.90;;;;;;4960614;28;91487;-29
2023/03/10 01:23:41;;;;;;;14.63;10.63;;;1.00;99.90;;;;;;4961968;28;89858;-30
2023/03/10 01:26:07;;;;;;;16.52;10.05;;;0.90;99.90;;;;;;4960150;28;90206;-29
2023/03/10 01:28:33;;;;;;;14.98;10.20;;;0.90;99.90;;;;;;4961083;28;89544;-29
2023/03/10 01:30:58;;;;;;;19.00;12.05;;;1.00;99.90;;;;;;4960404;28;90412;-30
2023/03/10 01:33:24;;;;;;;15.57;9.23;;;0.90;99.90;;;;;;4961062;28;88964;-32
2023/03/10 01:35:49;;;;;;;18.85;10.40;;;0.90;99.90;;;;;;4961021;28;90002;-30
2023/03/10 01:38:15;;;;;;;16.15;10.50;;;0.90;99.90;;;;;;4960960;28;89621;-30
2023/03/10 01:40:47;;;;;;;20.52;11.10;;;1.00;99.90;;;;;;4960359;28;89612;-32
2023/03/10 01:43:36;;;;;;;16.27;11.70;;;0.90;99.90;;;;;;4960664;28;90762;-32
2023/03/10 01:46:21;;;;;;;11.75;9.35;;;0.90;99.90;;;;;;4952346;28;90603;-28
2023/03/10 01:48:47;;;;;;;15.40;9.30;;;0.90;99.90;;;;;;4961086;28;89894;-29
2023/03/10 01:51:12;;;;;;;13.68;9.80;;;0.90;99.90;;;;;;4960864;28;90228;-33
2023/03/10 01:53:38;;;;;;;16.23;10.68;;;1.00;99.90;;;;;;4961512;28;88978;-30
2023/03/10 01:56:05;;;;;;;17.08;12.52;;;0.90;99.90;;;;;;4959952;28;90464;-33
2023/03/10 01:58:39;;;;;;;15.02;10.38;;;0.90;99.90;;;;;;4960394;28;90097;-32
2023/03/10 02:01:06;;;;;;;15.32;7.93;;;0.90;99.90;;;;;;4943201;28;89697;-30
2023/03/10 02:03:38;;;;;;;12.70;9.82;;;1.00;99.90;;;;;;4960649;28;89942;-33
2023/03/10 02:06:09;;;;;;;14.60;10.25;;;0.90;99.90;;;;;;4960695;28;90203;-32
2023/03/10 02:08:42;;;;;;;12.18;8.60;;;0.90;99.90;;;;;;4959943;28;90584;-29
2023/03/10 02:11:08;;;;;;;14.35;7.90;;;0.90;99.90;;;;;;4960686;28;90485;-29
2023/03/10 02:13:33;;;;;;;15.40;9.27;;;1.00;99.90;;;;;;4961882;28;89329;-30
2023/03/10 02:15:59;;;;;;;16.05;8.55;;;1.00;99.90;;;;;;4960368;28;89866;-33
2023/03/10 02:18:27;;;;;;;12.98;8.85;;;0.90;99.90;;;;;;4961015;28;90629;-29
2023/03/10 02:21:02;;;;;;;13.68;9.63;;;0.90;99.90;;;;;;4960466;28;89890;-30
2023/03/10 02:23:38;;;;;;;17.38;11.15;;;0.90;99.90;;;;;;4941290;28;89013;-34
2023/03/10 02:26:18;;;;;;;12.70;9.07;;;1.00;99.90;;;;;;4954934;28;90797;-30
2023/03/10 02:28:46;;;;;;;15.10;8.82;;;0.90;99.90;;;;;;4961007;28;89608;-30
2023/03/10 02:31:12;;;;;;;17.00;9.50;;;1.00;99.90;;;;;;4960733;28;89731;-30
2023/03/10 02:33:38;;;;;;;14.48;9.95;;;0.90;99.90;;;;;;4960622;28;90326;-30
2023/03/10 02:36:18;;;;;;;19.73;9.80;;;0.90;99.90;;;;;;4959976;28;88256;-31
2023/03/10 02:38:43;;;;;;;14.38;11.18;;;1.00;99.90;;;;;;4948220;28;89198;-29
2023/03/10 02:41:30;;;;;;;14.88;11.68;;;1.00;99.90;;;;;;4959852;28;89682;-28
2023/03/10 02:43:59;;;;;;;13.73;9.15;;;0.90;99.90;;;;;;4947488;28;88219;-30
2023/03/10 02:46:26;;;;;;;17.42;10.88;;;1.00;99.90;;;;;;4959873;28;90581;-31
2023/03/10 02:48:52;;;;;;;13.98;9.40;;;0.90;99.90;;;;;;4959404;28;89059;-33
2023/03/10 02:51:22;;;;;;;15.20;10.35;;;0.90;99.90;;;;;;4960763;28;89523;-32
2023/03/10 02:53:48;;;;;;;16.70;11.10;;;0.90;99.90;;;;;;4960055;28;89216;-32
2023/03/10 02:56:13;;;;;;;14.73;10.80;;;0.90;99.90;;;;;;4958656;28;91047;-31
2023/03/10 02:58:39;;;;;;;17.00;11.32;;;0.90;99.90;;;;;;4959428;28;90506;-29
2023/03/10 03:01:05;;;;;;;20.23;11.80;;;0.90;99.90;;;;;;4959145;28;89528;-30
2023/03/10 03:03:31;;;;;;;14.40;9.52;;;0.90;99.90;;;;;;4959316;28;88940;-32
2023/03/10 03:05:57;;;;;;;18.00;11.35;;;0.90;99.90;;;;;;4959975;28;89915;-31
2023/03/10 03:08:23;;;;;;;19.48;13.85;;;0.90;99.90;;;;;;4959113;28;89936;-29
2023/03/10 03:10:49;;;;;;;21.13;14.50;;;1.00;99.90;;;;;;4959430;28;89571;-32
2023/03/10 03:13:15;;;;;;;19.77;13.15;;;0.90;99.90;;;;;;4959430;28;88688;-30
2023/03/10 03:15:41;;;;;;;21.58;13.00;;;1.00;99.90;;;;;;4959544;28;91166;-30
2023/03/10 03:18:07;;;;;;;22.92;12.18;;;0.90;99.90;;;;;;4959110;28;89396;-29
2023/03/10 03:20:35;;;;;;;22.90;17.05;;;1.00;99.90;;;;;;4959454;28;89952;-28
2023/03/10 03:23:01;;;;;;;19.20;14.48;;;0.90;99.90;;;;;;4956306;28;90052;-30
2023/03/10 03:25:29;;;;;;;21.38;13.63;;;0.90;99.90;;;;;;4959497;28;89185;-29
2023/03/10 03:27:55;;;;;;;28.77;18.80;;;0.90;99.90;;;;;;4959625;28;89358;-30
2023/03/10 03:30:26;;;;;;;21.48;12.23;;;0.90;99.90;;;;;;4958337;28;89945;-32
2023/03/10 03:32:53;;;;;;;22.23;13.93;;;0.90;99.90;;;;;;4959539;28;88366;-32
2023/03/10 03:35:25;;;;;;;20.25;14.63;;;1.00;99.90;;;;;;4958476;28;90440;-32
2023/03/10 03:37:52;;;;;;;23.27;12.00;;;1.00;99.90;;;;;;4958901;28;89324;-29
2023/03/10 03:40:19;;;;;;;14.32;11.05;;;1.00;99.90;;;;;;4958447;28;89271;-33
2023/03/10 03:42:47;;;;;;;21.38;13.75;;;1.00;99.90;;;;;;4958808;28;89072;-31
2023/03/10 03:45:15;;;;;;;18.98;13.52;;;1.00;99.90;;;;;;4958679;28;90330;-28
2023/03/10 03:47:41;;;;;;;23.75;13.73;;;1.10;99.90;;;;;;4958213;28;91232;-31
2023/03/10 03:50:07;;;;;;;21.48;14.88;;;1.00;99.90;;;;;;4958690;28;90363;-28
2023/03/10 03:52:33;;;;;;;17.08;13.75;;;1.00;99.90;;;;;;4959218;28;88431;-30
2023/03/10 03:54:59;;;;;;;13.90;11.15;;;1.00;99.90;;;;;;4958471;28;90519;-29
2023/03/10 03:57:25;;;;;;;21.45;11.57;;;1.00;99.90;;;;;;4958491;28;90785;-34
2023/03/10 03:59:50;;;;;;;17.67;11.48;;;0.90;99.90;;;;;;4959110;28;89644;-30
2023/03/10 04:02:16;;;;;;;15.07;10.70;;;1.00;99.90;;;;;;4958252;28;88735;-30
2023/03/10 04:04:42;;;;;;;19.27;12.80;;;0.90;99.90;;;;;;4958175;28;90083;-29
2023/03/10 04:07:07;;;;;;;21.55;13.07;;;0.90;99.90;;;;;;4958616;28;90025;-28
2023/03/10 04:09:33;;;;;;;15.93;11.55;;;1.00;99.90;;;;;;4958793;28;89640;-31
2023/03/10 04:11:59;;;;;;;19.92;12.10;;;0.90;99.90;;;;;;4957917;28;89750;-32
2023/03/10 04:14:24;;;;;;;21.27;10.55;;;0.90;99.90;;;;;;4958506;28;90413;-29
2023/03/10 04:16:50;;;;;;;16.33;9.40;;;1.00;99.90;;;;;;4944464;28;90254;-30
2023/03/10 04:19:15;;;;;;;13.40;9.35;;;1.00;99.90;;;;;;4958872;28;89558;-29
2023/03/10 04:21:41;;;;;;;14.90;8.90;;;1.00;99.90;;;;;;4959501;28;89173;-32
2023/03/10 04:24:07;;;;;;;17.92;10.32;;;1.00;99.90;;;;;;4958480;28;90231;-30
2023/03/10 04:26:32;;;;;;;14.65;10.48;;;1.00;99.90;;;;;;4958421;28;89930;-30
2023/03/10 04:28:58;;;;;;;11.23;8.80;;;1.00;99.90;;;;;;4958407;28;89769;-30
2023/03/10 04:31:25;;;;;;;12.55;10.38;;;0.90;99.90;;;;;;4958899;28;87913;-33
2023/03/10 04:33:51;;;;;;;19.33;10.40;;;1.00;99.90;;;;;;4958223;28;90218;-31
2023/03/10 04:36:17;;;;;;;15.27;10.00;;;0.90;99.90;;;;;;4956993;28;91073;-29
2023/03/10 04:38:43;;;;;;;11.35;7.97;;;0.90;99.90;;;;;;4958116;28;90638;-32
2023/03/10 04:41:09;;;;;;;11.18;8.07;;;0.90;99.90;;;;;;4958713;28;89156;-29
2023/03/10 04:43:35;;;;;;;14.52;8.93;;;1.00;99.90;;;;;;4959042;28;89877;-29
2023/03/10 04:46:01;;;;;;;13.38;8.77;;;1.00;99.90;;;;;;4958522;28;89647;-30
2023/03/10 04:48:27;;;;;;;13.73;8.45;;;0.90;99.90;;;;;;4958630;28;89661;-32
2023/03/10 04:51:01;;;;;;;15.05;9.27;;;0.90;99.90;;;;;;4958844;28;87945;-30
2023/03/10 04:53:28;;;;;;;9.90;7.47;;;0.90;99.90;;;;;;4958534;28;90603;-30
2023/03/10 04:55:53;;;;;;;13.48;8.60;;;0.80;99.90;;;;;;4940339;28;89424;-27
2023/03/10 04:58:20;;;;;;;13.00;8.38;;;0.90;99.90;;;;;;4958616;28;89131;-28
2023/03/10 05:00:46;;;;;;;11.10;7.45;;;0.90;99.90;;;;;;4958364;28;88626;-28
2023/03/10 05:03:12;;;;;;;10.02;8.15;;;0.80;99.90;;;;;;4958638;28;90316;-31
2023/03/10 05:05:37;;;;;;;12.77;8.93;;;0.90;99.90;;;;;;4958506;28;89775;-30
2023/03/10 05:08:04;;;;;;;13.95;9.40;;;0.90;99.90;;;;;;4959040;28;89513;-28
2023/03/10 05:10:29;;;;;;;12.90;9.60;;;0.90;99.90;;;;;;4959188;28;88321;-29
2023/03/10 05:12:55;;;;;;;12.55;9.50;;;0.80;99.90;;;;;;4958090;28;91100;-28
2023/03/10 05:15:21;;;;;;;13.63;9.55;;;0.90;99.90;;;;;;4958201;28;89648;-30
2023/03/10 05:17:47;;;;;;;12.73;9.25;;;0.90;99.90;;;;;;4961622;28;89078;-28
2023/03/10 05:20:14;;;;;;;15.18;9.15;;;0.80;99.90;;;;;;4961810;28;89402;-31
2023/03/10 05:22:40;;;;;;;16.80;10.63;;;0.90;99.90;;;;;;4961205;28;90286;-32
2023/03/10 05:25:07;;;;;;;12.75;9.52;;;0.90;99.90;;;;;;4960750;28;91444;-27
2023/03/10 05:27:33;;;;;;;14.32;10.10;;;0.90;99.90;;;;;;4961455;28;90743;-32
2023/03/10 05:29:59;;;;;;;12.07;7.28;;;0.90;99.90;;;;;;4961219;28;89170;-31
2023/03/10 05:32:25;;;;;;;14.73;8.20;;;0.90;99.90;;;;;;4962151;28;90835;-28
2023/03/10 05:34:51;;;;;;;11.70;8.73;;;0.90;99.90;;;;;;4960964;28;89214;-30
2023/03/10 05:37:16;;;;;;;12.98;8.13;;;0.90;99.90;;;;;;4961047;28;89611;-29
2023/03/10 05:39:45;;;;;;;12.90;8.20;;;0.90;99.90;;;;;;4961404;28;88102;-32
2023/03/10 05:42:14;;;;;;;;;;;0.90;99.90;;;;;;4961494;28;89305;-29
2023/03/10 05:44:39;;;;;;;12.93;8.18;;;0.90;99.90;;;;;;4962345;28;89743;-31
2023/03/10 05:47:05;;;;;;;14.85;10.05;;;0.90;99.90;;;;;;4960129;28;90317;-28
2023/03/10 05:49:31;;;;;;;14.70;9.75;;;0.90;99.90;;;;;;4960205;28;90224;-29
2023/03/10 05:51:57;;;;;;;17.52;10.05;;;0.90;99.90;;;;;;4961178;28;90129;-31
2023/03/10 05:54:23;;;;;;;18.02;11.48;;;0.90;99.90;;;;;;4946820;28;89375;-28
2023/03/10 05:56:49;;;;;;;16.00;9.38;;;0.80;99.90;;;;;;4960074;28;89754;-31
2023/03/10 05:59:14;;;;;;;14.23;9.77;;;0.90;99.90;;;;;;4961172;28;89342;-29
2023/03/10 06:01:40;;;;;;;17.58;11.35;;;0.90;99.90;;;;;;4960637;28;89830;-30
2023/03/10 06:04:06;;;;;;;20.10;12.30;;;0.90;99.90;;;;;;4960486;28;88853;-30
2023/03/10 06:06:31;;;;;;;16.48;12.50;;;0.90;99.90;;;;;;4960490;28;90121;-29
2023/03/10 06:08:57;;;;;;;13.10;9.13;;;0.80;99.90;;;;;;4960343;28;88280;-28
2023/03/10 06:11:23;;;;;;;14.65;11.55;;;0.80;99.90;;;;;;4941685;28;90060;-28
2023/03/10 06:13:48;;;;;;;15.43;10.02;;;0.80;99.90;;;;;;4951241;28;90849;-30
2023/03/10 06:16:14;;;;;;;17.35;11.23;;;0.90;99.90;;;;;;4960091;28;89406;-30
2023/03/10 06:18:40;;;;;;;17.20;12.10;;;0.90;99.90;;;;;;4960359;28;87647;-30
2023/03/10 06:21:07;;;;;;;15.68;9.90;;;0.90;99.90;;;;;;4959804;28;90141;-30
2023/03/10 06:23:33;;;;;;;17.52;10.10;;;0.90;99.90;;;;;;4960827;28;88978;-29
2023/03/10 06:26:04;;;;;;;19.05;11.48;;;0.90;99.90;;;;;;4959657;28;90317;-31
2023/03/10 06:28:31;;;;;;;18.88;12.88;;;0.90;99.90;;;;;;4960217;28;88683;-28
2023/03/10 06:31:02;;;;;;;12.98;9.27;;;0.90;99.90;;;;;;4960300;28;89602;-27
2023/03/10 06:33:30;;;;;;;18.15;12.77;;;1.00;99.90;;;;;;4960232;28;90145;-31
2023/03/10 06:35:56;;;;;;;23.27;13.13;;;1.00;99.90;;;;;;4959256;28;89692;-31
2023/03/10 06:38:22;;;;;;;20.88;13.52;;;1.00;99.90;;;;;;4959486;28;89376;-30
2023/03/10 06:40:48;;;;;;;20.48;14.18;;;1.00;99.90;;;;;;4959912;28;89987;-29
2023/03/10 06:43:13;;;;;;;15.00;11.75;;;1.00;99.90;;;;;;4959611;28;89203;-31
2023/03/10 06:45:43;;;;;;;21.52;12.73;;;0.90;99.90;;;;;;4959407;28;89575;-30
2023/03/10 06:48:09;;;;;;;23.13;15.05;;;1.00;99.90;;;;;;4959167;28;89472;-30
2023/03/10 06:50:35;;;;;;;23.33;15.00;;;1.00;99.90;;;;;;4959329;28;90099;-29
2023/03/10 06:53:01;;;;;;;22.25;14.55;;;1.00;99.90;;;;;;4959496;28;90307;-30
2023/03/10 06:55:26;;;;;;;25.13;16.70;;;0.90;99.90;;;;;;4959792;28;90204;-28
2023/03/10 06:57:52;;;;;;;19.45;15.23;;;0.90;99.90;;;;;;4959862;28;89873;-32
2023/03/10 07:00:18;;;;;;;21.88;14.32;;;1.00;99.90;;;;;;4959013;28;90090;-29
2023/03/10 07:02:44;;;;;;;21.40;15.70;;;1.00;99.90;;;;;;4958445;28;90382;-32
2023/03/10 07:05:12;;;;;;;26.83;15.88;;;1.00;99.90;;;;;;4958948;28;90010;-27
2023/03/10 07:07:38;;;;;;;19.83;13.65;;;1.10;99.90;;;;;;4959571;28;89984;-32
2023/03/10 07:10:04;;;;;;;23.13;16.25;;;1.00;99.90;;;;;;4958931;28;90361;-31
2023/03/10 07:12:30;;;;;;;23.80;15.80;;;1.10;99.90;;;;;;4959682;28;88903;-28
2023/03/10 07:14:56;;;;;;;20.95;13.70;;;1.10;99.90;;;;;;4958632;28;89850;-27
2023/03/10 07:17:21;;;;;;;25.23;15.38;;;1.00;99.90;;;;;;4959374;28;89332;-32
2023/03/10 07:19:47;;;;;;;21.48;14.52;;;1.10;99.90;;;;;;4959320;28;90146;-30
2023/03/10 07:22:12;;;;;;;21.40;14.32;;;1.10;99.90;;;;;;4958662;28;89573;-32
2023/03/10 07:24:38;;;;;;;20.88;12.63;;;1.20;99.90;;;;;;4959396;28;90349;-27
2023/03/10 07:27:04;;;;;;;14.98;13.15;;;1.10;99.90;;;;;;4957623;28;89075;-28
2023/03/10 07:29:30;;;;;;;18.15;14.63;;;1.00;99.90;;;;;;4959583;28;90087;-28
2023/03/10 07:31:56;;;;;;;21.73;14.52;;;1.10;99.90;;;;;;4945411;28;89194;-29
2023/03/10 07:34:22;;;;;;;25.75;15.55;;;1.10;99.90;;;;;;4959269;28;88259;-29
2023/03/10 07:36:47;;;;;;;25.88;15.98;;;1.00;99.90;;;;;;4947212;28;88441;-28
2023/03/10 07:39:13;;;;;;;22.52;14.35;;;1.10;99.90;;;;;;4945001;28;90207;-28
2023/03/10 07:41:38;;;;;;;20.85;15.18;;;1.10;99.90;;;;;;4959447;28;89723;-29
2023/03/10 07:44:04;;;;;;;17.27;13.38;;;1.10;99.90;;;;;;4948077;28;90112;-30
2023/03/10 07:46:30;;;;;;;16.73;12.32;;;1.10;99.90;;;;;;4947582;28;89274;-32
2023/03/10 07:48:58;;;;;;;22.15;14.52;;;1.10;99.90;;;;;;4956468;28;90280;-28
2023/03/10 07:51:25;;;;;;;24.85;16.70;;;1.20;99.90;;;;;;4955464;28;90057;-30
2023/03/10 07:53:51;;;;;;;22.20;14.02;;;1.20;99.90;;;;;;4956198;28;90146;-32
2023/03/10 07:56:17;;;;;;;27.17;17.83;;;1.20;99.90;;;;;;4956969;28;88000;-31
2023/03/10 07:58:43;;;;;;;23.25;13.73;;;1.20;99.90;;;;;;4956236;28;91188;-31
2023/03/10 08:01:14;;;;;;;21.60;13.27;;;1.20;99.90;;;;;;4938699;28;89476;-32
2023/03/10 08:03:40;;;;;;;17.00;12.40;;;1.20;99.90;;;;;;4939305;28;88330;-29
2023/03/10 08:06:06;;;;;;;18.55;13.57;;;1.20;99.90;;;;;;4927835;28;89160;-27
2023/03/10 08:08:31;;;;;;;21.42;15.27;;;1.20;99.90;;;;;;4956730;28;90759;-30
2023/03/10 08:11:02;;;;;;;20.73;11.85;;;1.20;99.90;;;;;;4956752;28;89602;-28
2023/03/10 08:13:28;;;;;;;20.05;13.35;;;1.20;99.90;;;;;;4938435;28;89233;-30
2023/03/10 08:15:54;;;;;;;15.60;10.18;;;1.20;99.90;;;;;;4943344;28;89282;-28
2023/03/10 08:18:19;;;;;;;16.58;10.60;;;1.20;99.90;;;;;;4956442;28;90021;-29
2023/03/10 08:20:45;;;;;;;19.23;14.00;;;1.20;99.90;;;;;;4954376;28;90760;-29
2023/03/10 08:23:10;;;;;;;18.98;11.77;;;1.20;99.90;;;;;;4939293;28;89933;-30
2023/03/10 08:25:37;;;;;;;19.95;12.90;;;1.30;99.90;;;;;;4947952;28;88741;-30
2023/03/10 08:28:02;;;;;;;22.70;15.80;;;1.20;99.90;;;;;;4945440;28;90350;-31
2023/03/10 08:30:28;;;;;;;21.65;14.27;;;1.30;99.90;;;;;;4941187;28;89658;-32
2023/03/10 08:32:53;;;;;;;17.92;10.27;;;1.30;99.90;;;;;;4945392;28;88661;-29
2023/03/10 08:35:19;;;;;;;18.45;11.02;;;1.30;99.90;;;;;;4936101;28;89638;-30
2023/03/10 08:37:45;;;;;;;21.60;13.43;;;1.30;99.90;;;;;;4950603;28;89342;-28
2023/03/10 08:40:13;;;;;;;17.80;12.63;;;1.30;99.90;;;;;;4946530;28;89646;-28
2023/03/10 08:42:39;;;;;;;12.98;10.65;;;1.20;99.90;;;;;;4935838;28;90274;-28
2023/03/10 08:45:05;;;;;;;22.65;14.02;;;1.30;99.90;;;;;;4946614;28;89407;-30
2023/03/10 08:47:30;;;;;;;19.48;12.48;;;1.30;99.90;;;;;;4948169;28;91016;-29
2023/03/10 08:49:56;;;;;;;16.77;12.07;;;1.20;99.90;;;;;;4952964;28;89630;-30
2023/03/10 08:52:23;;;;;;;18.88;11.60;;;1.30;99.90;;;;;;4951735;28;89724;-29
2023/03/10 08:54:48;;;;;;;18.15;12.10;;;1.30;99.90;;;;;;4955324;28;88841;-31
2023/03/10 08:57:14;;;;;;;21.25;14.35;;;1.30;99.90;;;;;;4959561;28;90274;-30
2023/03/10 08:59:39;;;;;;;21.75;12.93;;;1.40;99.90;;;;;;4954133;28;89738;-30
2023/03/10 09:02:05;;;;;;;22.63;13.93;;;1.40;99.90;;;;;;4955608;28;90291;-29
2023/03/10 09:04:31;;;;;;;18.77;10.30;;;1.40;99.90;;;;;;4951497;28;88692;-28
2023/03/10 09:06:57;;;;;;;18.48;10.98;;;1.30;99.90;;;;;;4955209;28;90762;-31
2023/03/10 09:09:22;;;;;;;21.27;13.10;;;1.40;99.90;;;;;;4950253;28;89585;-30
2023/03/10 09:11:48;;;;;;;18.70;12.73;;;1.40;99.90;;;;;;4958927;28;89941;-28
2023/03/10 09:14:17;;;;;;;17.38;12.20;;;1.40;99.90;;;;;;4959609;28;90319;-31
2023/03/10 09:16:43;;;;;;;15.60;11.00;;;1.40;99.90;;;;;;4958696;28;88883;-30
2023/03/10 09:19:09;;;;;;;18.42;13.68;;;1.40;99.90;;;;;;4959173;28;89663;-30
2023/03/10 09:21:34;;;;;;;16.45;9.75;;;1.40;99.90;;;;;;4958624;28;89626;-29
2023/03/10 09:24:01;;;;;;;16.95;11.55;;;1.40;99.90;;;;;;4959331;28;89187;-33
2023/03/10 09:26:27;;;;;;;15.77;12.07;;;1.50;99.90;;;;;;4958869;28;91015;-30
2023/03/10 09:28:53;;;;;;;13.85;11.38;;;1.30;99.90;;;;;;4945753;28;90382;-32
2023/03/10 09:31:27;;;;;;;17.92;13.25;;;1.30;99.90;;;;;;4954573;28;90045;-28
2023/03/10 09:33:52;;;;;;;21.05;12.07;;;1.40;99.90;;;;;;4958769;28;89477;-31
2023/03/10 09:36:18;;;;;;;15.55;10.25;;;1.40;99.90;;;;;;4958185;28;90309;-30
2023/03/10 09:38:44;;;;;;;18.45;13.07;;;1.50;99.90;;;;;;4958167;28;89872;-31
2023/03/10 09:41:33;;;;;;;22.80;15.25;;;1.40;99.90;;;;;;4958752;28;90169;-28
2023/03/10 09:44:11;;;;;;;18.10;11.70;;;1.50;99.90;;;;;;4958780;28;89105;-29
2023/03/10 09:47:03;;;;;;;22.40;11.93;;;1.40;99.90;;;;;;4958143;28;90394;-28
2023/03/10 09:49:39;;;;;;;20.33;12.55;;;1.40;99.90;;;;;;4946836;28;89518;-32
2023/03/10 09:52:44;;;;;;;24.55;15.07;;;1.40;99.90;;;;;;4960232;28;89801;-31
2023/03/10 09:55:19;;;;;;;19.90;13.23;;;1.30;99.90;;;;;;4955438;28;90930;-30
2023/03/10 09:57:56;;;;;;;20.05;13.35;;;1.40;99.90;;;;;;4959340;28;90078;-30
2023/03/10 10:00:37;;;;;;;20.60;13.23;;;1.40;99.90;;;;;;4960999;28;90197;-29
2023/03/10 10:03:21;;;;;;;16.30;10.95;;;1.40;99.90;;;;;;4946547;28;88009;-27
2023/03/10 10:05:52;;;;;;;18.65;13.65;;;1.30;99.90;;;;;;4960764;28;89496;-28
2023/03/10 10:08:28;;;;;;;20.33;12.27;;;1.40;99.90;;;;;;4960248;28;90337;-29
2023/03/10 10:10:56;;;;;;;23.02;14.15;;;1.40;99.90;;;;;;4959317;28;89585;-27
2023/03/10 10:13:25;;;;;;;18.45;14.43;;;1.30;99.90;;;;;;4960267;28;89940;-27
2023/03/10 10:15:56;;;;;;;;;;;1.40;99.90;;;;;;4960984;28;89518;-29
2023/03/10 10:18:29;;;;;;;16.35;10.32;;;1.30;99.90;;;;;;4962151;28;90319;-28
2023/03/10 10:21:11;;;;;;;20.15;13.20;;;1.40;99.90;;;;;;4960192;28;90280;-31
2023/03/10 10:23:50;;;;;;;16.92;10.73;;;1.40;99.90;;;;;;4959915;28;90555;-27
2023/03/10 10:26:16;;;;;;;;;;;1.40;99.90;;;;;;4960140;28;88933;-31
2023/03/10 10:29:11;;;;;;;17.45;14.32;;;1.40;99.90;;;;;;4962726;28;89415;-29
2023/03/10 10:31:37;;;;;;;20.67;13.30;;;1.40;99.90;;;;;;4959509;28;89107;-30
2023/03/10 10:34:18;;;;;;;21.42;13.95;;;1.40;99.90;;;;;;4960213;28;88271;-32
2023/03/10 10:36:50;;;;;;;19.95;13.02;;;1.30;99.90;;;;;;4959806;28;87632;-28
2023/03/10 10:39:40;;;;;;;21.95;14.60;;;1.40;99.90;;;;;;4942537;28;90481;-29
2023/03/10 10:42:25;;;;;;;19.48;13.35;;;1.40;99.90;;;;;;4959915;28;89304;-31
2023/03/10 10:44:56;;;;;;;23.45;14.73;;;1.40;99.90;;;;;;4959440;28;89047;-28
2023/03/10 10:47:30;;;;;;;18.55;14.57;;;1.40;99.90;;;;;;4958640;28;90239;-28
2023/03/10 10:50:18;;;;;;;19.52;14.02;;;1.40;99.90;;;;;;4960509;28;89962;-32
2023/03/10 10:52:48;;;;;;;24.10;16.65;;;1.50;99.90;;;;;;4945937;28;90140;-30
2023/03/10 10:55:28;;;;;;;21.05;13.65;;;1.50;99.90;;;;;;4959685;28;89643;-30
2023/03/10 10:57:58;;;;;;;24.75;13.43;;;1.40;99.90;;;;;;4946561;28;89627;-29
2023/03/10 11:00:29;;;;;;;21.45;13.38;;;1.40;99.90;;;;;;4959284;28;90056;-30
2023/03/10 11:02:54;;;;;;;17.55;12.35;;;1.40;99.90;;;;;;4945746;28;89927;-27
2023/03/10 11:05:34;;;;;;;17.88;12.38;;;1.40;99.90;;;;;;4959633;28;88847;-30
2023/03/10 11:08:29;;;;;;;21.77;13.73;;;1.40;99.90;;;;;;4946154;28;89134;-33
2023/03/10 11:11:20;;;;;;;22.42;12.25;;;1.40;99.90;;;;;;4959969;28;89777;-29
2023/03/10 11:14:18;;;;;;;20.33;11.93;;;1.50;99.90;;;;;;4958318;28;89072;-32
2023/03/10 11:16:43;;;;;;;20.13;12.65;;;1.40;99.90;;;;;;4913824;28;90218;-32
2023/03/10 11:19:42;;;;;;;16.88;11.32;;;1.40;99.90;;;;;;4942150;28;88193;-30
2023/03/10 11:22:42;;;;;;;19.25;14.13;;;1.40;99.90;;;;;;4950404;28;89092;-30
2023/03/10 11:25:14;;;;;;;16.08;11.25;;;1.40;99.90;;;;;;4946533;28;89395;-29
2023/03/10 11:28:13;;;;;;;21.27;13.00;;;1.30;99.90;;;;;;4958742;28;89967;-31
2023/03/10 11:30:47;;;;;;;14.68;12.52;;;1.40;99.90;;;;;;4950347;28;89082;-27
2023/03/10 11:33:41;;;;;;;21.70;13.80;;;1.40;99.90;;;;;;4959555;28;90562;-31
2023/03/10 11:36:20;;;;;;;19.60;13.38;;;1.50;99.90;;;;;;4948940;28;90100;-27
2023/03/10 11:38:48;;;;;;;17.63;12.20;;;1.40;99.90;;;;;;4958860;28;89794;-29
2023/03/10 11:41:16;;;;;;;;;;;1.50;99.90;;;;;;4959162;28;90099;-29
2023/03/10 11:44:02;;;;;;;21.58;13.40;;;1.50;99.90;;;;;;4960663;28;89798;-31
2023/03/10 11:46:59;;;;;;;23.60;12.90;;;1.50;99.90;;;;;;4958936;28;89741;-29
2023/03/10 11:49:35;;;;;;;23.77;13.43;;;1.40;99.90;;;;;;4899188;28;89970;-28
2023/03/10 11:52:09;;;;;;;19.92;12.05;;;1.40;99.90;;;;;;4899758;28;88894;-29
2023/03/10 11:54:40;;;;;;;20.38;14.63;;;1.40;99.90;;;;;;4901031;28;89275;-31
2023/03/10 11:57:16;;;;;;;22.25;12.80;;;1.40;99.90;;;;;;4902708;28;89645;-32
2023/03/10 11:59:55;;;;;;;25.17;18.73;;;1.40;99.90;;;;;;4902205;28;89616;-31
2023/03/10 12:02:33;;;;;;;23.52;15.90;;;1.40;99.90;;;;;;4901913;28;88664;-29
2023/03/10 12:05:14;;;;;;;20.30;14.70;;;1.50;99.90;;;;;;4901694;28;90344;-28
2023/03/10 12:07:45;;;;;;;21.92;14.45;;;1.40;99.90;;;;;;4903295;28;90087;-31
2023/03/10 12:10:11;;;;;;;25.45;15.45;;;1.40;99.90;;;;;;4902751;28;90231;-30
2023/03/10 12:12:39;;;;;;;20.02;14.27;;;1.40;99.90;;;;;;4903442;28;88989;-31
2023/03/10 12:15:25;;;;;;;;;;;1.30;99.90;;;;;;4900682;28;89921;-30
2023/03/10 12:17:52;;;;;;;19.80;13.80;;;1.40;99.90;;;;;;4898638;28;89851;-28
2023/03/10 12:20:18;;;;;;;22.67;12.93;;;1.40;99.90;;;;;;4881373;28;89937;-27
2023/03/10 12:23:09;;;;;;;21.45;11.85;;;1.40;99.90;;;;;;4881372;28;88470;-29
2023/03/10 12:25:37;;;;;;;19.58;13.13;;;1.40;99.90;;;;;;4883151;28;90035;-29
2023/03/10 12:28:31;;;;;;;23.17;15.73;;;1.40;99.90;;;;;;4883852;28;89406;-31
2023/03/10 12:31:34;;;;;;;19.13;14.13;;;1.40;99.90;;;;;;4888720;28;89982;-29
2023/03/10 12:34:21;;;;;;;21.60;13.73;;;1.30;99.90;;;;;;4885756;28;89394;-29
2023/03/10 12:36:50;;;;;;;24.83;13.70;;;1.40;99.90;;;;;;4884642;28;89807;-28
2023/03/10 12:39:28;;;;;;;27.42;15.20;;;1.30;99.90;;;;;;4884099;28;90660;-28
2023/03/10 12:41:55;;;;;;;18.93;12.23;;;1.40;99.90;;;;;;4899152;28;89268;-29
2023/03/10 12:44:45;;;;;;;24.75;14.93;;;1.30;99.90;;;;;;4889996;28;88730;-31
2023/03/10 12:47:21;;;;;;;21.33;15.45;;;1.30;99.90;;;;;;4881085;28;89858;-28
2023/03/10 12:50:02;;;;;;;23.08;15.48;;;1.30;99.90;;;;;;4882095;28;89814;-31
2023/03/10 12:52:30;;;;;;;24.17;15.13;;;1.30;99.90;;;;;;4884780;28;89638;-27